Time;durP1;ratioP1;P1;durP2;ratioP2;P2;SDS_P1;SDS_P2;PMS_P1;PMS_P2;Temp;Humidity;BMP_temperature;BMP_pressure;BME280_temperature;BME280_humidity;BME280_pressure;Samples;Min_cycle;Max_cycle;Signal;HPM_P1;HPM_P2
2022/08/18 00:02:16;;;;;;;7.83;6.40;;;20.70;99.90;;;;;;5020205;28;20480;-83
2022/08/18 00:04:43;;;;;;;9.50;6.10;;;20.70;99.90;;;;;;5017493;28;20461;-83
2022/08/18 00:07:12;;;;;;;6.57;5.97;;;20.80;99.90;;;;;;5019012;28;21003;-82
2022/08/18 00:09:39;;;;;;;8.53;7.20;;;20.50;99.90;;;;;;5017801;28;20472;-82
2022/08/18 00:12:12;;;;;;;6.17;5.60;;;20.40;99.90;;;;;;5019094;28;20433;-82
2022/08/18 00:14:38;;;;;;;6.80;6.20;;;20.40;99.90;;;;;;5020510;28;20784;-82
2022/08/18 00:17:04;;;;;;;7.87;5.97;;;20.40;99.90;;;;;;5015555;28;20519;-81
2022/08/18 00:19:29;;;;;;;8.67;5.93;;;20.40;99.90;;;;;;5016704;28;20226;-82
2022/08/18 00:21:55;;;;;;;8.10;6.50;;;20.40;99.90;;;;;;5017534;28;20186;-82
2022/08/18 00:24:20;;;;;;;6.00;5.10;;;20.40;99.90;;;;;;5005369;28;20207;-82
2022/08/18 00:26:46;;;;;;;10.80;5.80;;;20.40;99.90;;;;;;5021321;28;20201;-82
2022/08/18 00:29:11;;;;;;;6.77;4.97;;;20.30;99.90;;;;;;5021085;28;20182;-82
2022/08/18 00:31:37;;;;;;;5.57;5.07;;;20.30;99.90;;;;;;5016642;28;20170;-82
2022/08/18 00:34:02;;;;;;;7.80;5.07;;;20.30;99.90;;;;;;5017156;28;20582;-82
2022/08/18 00:36:30;;;;;;;6.50;5.80;;;20.20;99.90;;;;;;5018057;28;20265;-82
2022/08/18 00:38:56;;;;;;;5.60;5.03;;;20.20;99.90;;;;;;5019088;28;20189;-82
2022/08/18 00:41:25;;;;;;;5.90;4.90;;;20.10;99.90;;;;;;5018502;28;20448;-82
2022/08/18 00:43:51;;;;;;;5.93;5.33;;;20.10;99.90;;;;;;5019304;28;20194;-82
2022/08/18 00:46:23;;;;;;;5.90;5.30;;;20.10;99.90;;;;;;5021451;28;20413;-82
2022/08/18 00:48:51;;;;;;;7.37;5.73;;;20.00;99.90;;;;;;5017543;28;20764;-83
2022/08/18 00:51:23;;;;;;;10.97;5.27;;;20.00;99.90;;;;;;5016928;28;20522;-82
2022/08/18 00:53:58;;;;;;;6.70;6.00;;;19.90;99.90;;;;;;5004506;28;20416;-81
2022/08/18 00:56:29;;;;;;;5.50;5.00;;;19.90;99.90;;;;;;5019929;28;20444;-82
2022/08/18 00:59:12;;;;;;;5.83;4.97;;;19.80;99.90;;;;;;5018349;28;20460;-82
2022/08/18 01:01:40;;;;;;;8.00;5.50;;;19.70;99.90;;;;;;5018661;28;20520;-82
2022/08/18 01:04:17;;;;;;;6.77;5.27;;;19.70;99.90;;;;;;5014843;28;20469;-82
2022/08/18 01:06:52;;;;;;;8.70;6.70;;;19.60;99.90;;;;;;5017623;28;20425;-82
2022/08/18 01:09:17;;;;;;;8.83;6.70;;;19.60;99.90;;;;;;5015621;28;20483;-83
2022/08/18 01:11:44;;;;;;;9.50;6.13;;;19.60;99.90;;;;;;5020222;28;20804;-83
2022/08/18 01:14:14;;;;;;;7.70;6.90;;;19.50;99.90;;;;;;5020533;28;20530;-82
2022/08/18 01:22:36;;;;;;;7.73;6.97;;;19.50;99.90;;;;;;5017005;28;20436;-82
2022/08/18 01:27:50;;;;;;;7.93;7.00;;;19.40;99.90;;;;;;5018369;28;20459;-83
2022/08/18 01:30:17;;;;;;;10.63;7.37;;;19.50;99.90;;;;;;5018702;28;20483;-83
2022/08/18 01:32:45;;;;;;;14.47;7.40;;;19.50;99.90;;;;;;5018844;28;21239;-82
2022/08/18 01:35:14;;;;;;;9.73;7.20;;;19.50;99.90;;;;;;5017140;28;20532;-82
2022/08/18 01:37:41;;;;;;;7.80;6.80;;;19.60;99.90;;;;;;5015909;28;20433;-82
2022/08/18 01:40:12;;;;;;;10.63;7.60;;;19.60;99.90;;;;;;5017234;28;20873;-81
2022/08/18 01:42:38;;;;;;;8.00;6.67;;;19.60;99.90;;;;;;5015641;28;20878;-82
2022/08/18 01:45:06;;;;;;;8.07;7.27;;;19.50;99.90;;;;;;5014681;28;20487;-83
2022/08/18 01:47:33;;;;;;;8.43;6.77;;;19.40;99.90;;;;;;5019098;28;20425;-82
2022/08/18 01:49:59;;;;;;;9.87;6.87;;;19.40;99.90;;;;;;5019236;28;21088;-82
2022/08/18 01:52:27;;;;;;;9.00;6.40;;;19.40;99.90;;;;;;5015705;28;20432;-83
2022/08/18 01:54:52;;;;;;;9.10;6.87;;;19.40;99.90;;;;;;5018796;28;20926;-82
2022/08/18 01:57:19;;;;;;;8.30;7.30;;;19.30;99.90;;;;;;5019403;28;20435;-83
2022/08/18 01:59:45;;;;;;;9.80;6.70;;;19.20;99.90;;;;;;5018890;28;20225;-82
2022/08/18 02:02:15;;;;;;;7.17;6.47;;;19.10;99.90;;;;;;5017909;28;21653;-82
2022/08/18 02:04:42;;;;;;;9.13;7.53;;;19.10;99.90;;;;;;5022891;28;20573;-81
2022/08/18 02:07:13;;;;;;;8.67;7.80;;;19.00;99.90;;;;;;5016475;28;20453;-81
2022/08/18 02:09:41;;;;;;;8.30;7.30;;;19.00;99.90;;;;;;5020123;28;20460;-82
2022/08/18 02:12:07;;;;;;;9.60;6.50;;;18.80;99.90;;;;;;5018413;28;20444;-82
2022/08/18 02:14:34;;;;;;;10.53;7.40;;;18.70;99.90;;;;;;5022798;28;20412;-82
2022/08/18 02:17:02;;;;;;;9.10;7.60;;;18.70;99.90;;;;;;5020665;28;20689;-82
2022/08/18 02:19:33;;;;;;;9.60;7.90;;;18.70;99.90;;;;;;5019795;28;20491;-82
2022/08/18 02:21:59;;;;;;;8.83;7.30;;;18.70;99.90;;;;;;5020463;28;20428;-82
2022/08/18 02:24:25;;;;;;;10.57;7.37;;;;;;;;;;5018653;28;20456;-82
2022/08/18 02:26:50;;;;;;;8.27;7.47;;;18.50;99.90;;;;;;5019715;28;20771;-82
2022/08/18 02:29:16;;;;;;;10.77;7.60;;;18.60;99.90;;;;;;5019302;28;20505;-82
2022/08/18 02:31:41;;;;;;;10.57;7.07;;;18.60;99.90;;;;;;5018210;28;20258;-82
2022/08/18 02:34:07;;;;;;;11.07;8.80;;;18.60;99.90;;;;;;5022610;28;20201;-82
2022/08/18 02:36:32;;;;;;;8.67;7.60;;;18.60;99.90;;;;;;5020912;28;20285;-82
2022/08/18 02:38:58;;;;;;;8.63;7.83;;;18.60;99.90;;;;;;5017856;28;20178;-82
2022/08/18 02:41:25;;;;;;;8.50;7.63;;;18.60;99.90;;;;;;5015949;28;20210;-82
2022/08/18 02:43:50;;;;;;;10.00;7.07;;;18.70;99.90;;;;;;5020026;28;20202;-81
2022/08/18 02:46:16;;;;;;;9.13;8.13;;;18.80;99.90;;;;;;5023625;28;20417;-81
2022/08/18 02:48:41;;;;;;;9.43;7.87;;;18.90;99.90;;;;;;5023101;28;20181;-84
2022/08/18 02:51:13;;;;;;;10.47;8.07;;;18.90;99.90;;;;;;5021751;28;20201;-83
2022/08/18 02:53:41;;;;;;;10.20;7.40;;;18.80;99.90;;;;;;5019389;28;20180;-84
2022/08/18 02:58:49;;;;;;;11.20;8.60;;;18.70;99.90;;;;;;5017937;28;20405;-83
2022/08/18 03:01:15;;;;;;;9.43;7.90;;;18.70;99.90;;;;;;5019066;28;20515;-83
2022/08/18 03:03:40;;;;;;;11.93;8.50;;;18.70;99.90;;;;;;5014488;28;20867;-83
2022/08/18 03:06:06;;;;;;;9.77;7.80;;;18.70;99.90;;;;;;5020845;28;20414;-83
2022/08/18 03:08:32;;;;;;;8.83;7.97;;;18.80;99.90;;;;;;5018249;28;20162;-83
2022/08/18 03:10:58;;;;;;;11.23;9.20;;;18.90;99.90;;;;;;5016033;28;20217;-84
2022/08/18 03:13:24;;;;;;;8.07;7.17;;;18.80;99.90;;;;;;5019692;28;20410;-83
2022/08/18 03:15:49;;;;;;;10.33;6.93;;;19.00;99.90;;;;;;5017625;28;20769;-83
2022/08/18 03:18:15;;;;;;;8.80;8.00;;;19.00;99.90;;;;;;5017816;28;20558;-83
2022/08/18 03:20:43;;;;;;;10.00;7.37;;;19.00;99.90;;;;;;5020570;28;20562;-83
2022/08/18 03:23:08;;;;;;;9.00;8.10;;;19.20;99.90;;;;;;5021806;28;20420;-83
2022/08/18 03:25:34;;;;;;;10.00;7.90;;;19.30;99.90;;;;;;5016906;28;20555;-84
2022/08/18 03:28:02;;;;;;;9.30;8.13;;;19.30;99.90;;;;;;5019683;28;20175;-81
2022/08/18 03:30:28;;;;;;;9.00;8.10;;;19.30;99.90;;;;;;5019224;28;20182;-84
2022/08/18 03:32:53;;;;;;;9.17;7.43;;;19.40;99.90;;;;;;5018197;28;20433;-85
2022/08/18 03:35:19;;;;;;;9.63;7.80;;;19.30;99.90;;;;;;5020797;28;20185;-84
2022/08/18 03:37:45;;;;;;;8.77;7.60;;;19.30;99.90;;;;;;5020082;28;20177;-84
2022/08/18 03:40:11;;;;;;;9.00;7.70;;;19.20;99.90;;;;;;5018001;28;20714;-84
2022/08/18 03:42:36;;;;;;;14.37;7.13;;;19.20;99.90;;;;;;5016878;28;20456;-83
2022/08/18 03:45:03;;;;;;;9.80;8.07;;;19.10;99.90;;;;;;5019818;28;20213;-84
2022/08/18 03:47:29;;;;;;;9.23;7.97;;;19.00;99.90;;;;;;5020133;28;20202;-84
2022/08/18 03:49:54;;;;;;;7.93;7.13;;;18.90;99.90;;;;;;5020679;28;20487;-85
2022/08/18 03:52:20;;;;;;;8.47;7.00;;;18.90;99.90;;;;;;5022665;28;20682;-84
2022/08/18 03:54:45;;;;;;;10.13;7.30;;;18.90;99.90;;;;;;5017615;28;20185;-84
2022/08/18 03:57:11;;;;;;;7.07;6.37;;;18.80;99.90;;;;;;5016611;28;20235;-84
2022/08/18 03:59:42;;;;;;;8.67;7.83;;;18.90;99.90;;;;;;5017915;28;20201;-84
2022/08/18 04:02:09;;;;;;;9.30;7.80;;;18.80;99.90;;;;;;5016470;28;20964;-84
2022/08/18 04:04:35;;;;;;;11.10;7.53;;;18.80;99.90;;;;;;5020219;28;20557;-83
2022/08/18 04:07:05;;;;;;;8.77;7.17;;;18.90;99.90;;;;;;5018457;28;20436;-83
2022/08/18 04:09:33;;;;;;;7.80;7.10;;;18.80;99.90;;;;;;5018896;28;20445;-83
2022/08/18 04:12:09;;;;;;;9.17;8.27;;;18.70;99.90;;;;;;5016166;28;20422;-83
2022/08/18 04:14:36;;;;;;;9.73;7.60;;;18.70;99.90;;;;;;5005222;28;20471;-83
2022/08/18 04:17:01;;;;;;;12.43;7.90;;;18.60;99.90;;;;;;5015119;28;20919;-83
2022/08/18 04:19:27;;;;;;;10.50;7.87;;;18.60;99.90;;;;;;5020128;28;20509;-83
2022/08/18 04:21:53;;;;;;;8.47;7.57;;;18.50;99.90;;;;;;5019735;28;20249;-84
2022/08/18 04:24:19;;;;;;;9.00;8.20;;;18.50;99.90;;;;;;5018672;28;20201;-84
2022/08/18 04:26:47;;;;;;;9.10;7.27;;;18.40;99.90;;;;;;5016270;28;20766;-83
2022/08/18 04:29:15;;;;;;;9.07;8.10;;;18.40;99.90;;;;;;5014090;28;20421;-84
2022/08/18 04:31:41;;;;;;;9.27;7.23;;;18.40;99.90;;;;;;5016613;28;20433;-84
2022/08/18 04:34:06;;;;;;;8.53;6.73;;;18.40;99.90;;;;;;5017318;28;20487;-83
2022/08/18 04:36:34;;;;;;;9.50;7.80;;;18.40;99.90;;;;;;5020941;28;20189;-84
2022/08/18 04:39:02;;;;;;;8.33;7.50;;;18.30;99.90;;;;;;5019449;28;20531;-82
2022/08/18 04:41:28;;;;;;;8.17;7.17;;;18.30;99.90;;;;;;5014929;28;20973;-83
2022/08/18 04:43:57;;;;;;;8.60;7.70;;;18.30;99.90;;;;;;5013685;28;20484;-83
2022/08/18 04:46:24;;;;;;;12.73;8.17;;;18.30;99.90;;;;;;5019165;28;20437;-84
2022/08/18 04:48:51;;;;;;;8.70;7.80;;;18.30;99.90;;;;;;5017196;28;20428;-84
2022/08/18 04:51:19;;;;;;;11.17;7.90;;;18.30;99.90;;;;;;5018456;28;20447;-83
2022/08/18 04:53:45;;;;;;;9.40;8.00;;;18.30;99.90;;;;;;5022101;28;20802;-83
2022/08/18 04:56:25;;;;;;;7.67;6.87;;;18.30;99.90;;;;;;5019825;28;20417;-83
2022/08/18 04:58:55;;;;;;;8.97;6.93;;;18.30;99.90;;;;;;5003340;28;21474;-83
2022/08/18 05:01:23;;;;;;;8.60;7.80;;;18.30;99.90;;;;;;5015375;28;20452;-84
2022/08/18 05:03:51;;;;;;;8.30;7.50;;;18.40;99.90;;;;;;5012070;28;20473;-83
2022/08/18 05:06:18;;;;;;;12.13;9.07;;;18.50;99.90;;;;;;5017628;28;21130;-83
2022/08/18 05:08:45;;;;;;;9.33;7.93;;;18.60;99.90;;;;;;5015365;28;20441;-83
2022/08/18 05:11:11;;;;;;;11.90;9.43;;;18.60;99.90;;;;;;5020671;28;21289;-83
2022/08/18 05:13:36;;;;;;;10.47;8.50;;;18.70;99.90;;;;;;5015815;28;20420;-83
2022/08/18 05:16:03;;;;;;;8.47;7.67;;;18.90;99.90;;;;;;5014139;28;20609;-83
2022/08/18 05:18:30;;;;;;;9.83;7.73;;;18.90;99.90;;;;;;5016768;28;20178;-83
2022/08/18 05:20:56;;;;;;;14.90;9.00;;;18.90;99.90;;;;;;5015641;28;20532;-83
2022/08/18 05:23:22;;;;;;;9.80;8.13;;;19.00;99.90;;;;;;5018266;28;20436;-83
2022/08/18 05:25:48;;;;;;;9.60;8.60;;;19.10;99.90;;;;;;4997889;28;20465;-83
2022/08/18 05:28:14;;;;;;;11.70;8.30;;;19.10;99.90;;;;;;5018458;28;20452;-83
2022/08/18 05:30:41;;;;;;;9.60;8.43;;;19.30;99.90;;;;;;5019743;28;20690;-84
2022/08/18 05:33:10;;;;;;;9.37;8.43;;;19.40;99.90;;;;;;5019264;28;20496;-83
2022/08/18 05:35:46;;;;;;;11.73;7.90;;;19.50;99.90;;;;;;5020492;28;20521;-83
2022/08/18 05:38:25;;;;;;;9.90;8.90;;;19.50;99.90;;;;;;5019084;28;20439;-83
2022/08/18 05:41:13;;;;;;;13.73;9.63;;;19.60;99.90;;;;;;5021425;28;20433;-83
2022/08/18 05:43:43;;;;;;;10.87;9.10;;;19.70;99.90;;;;;;5016335;28;20464;-83
2022/08/18 05:46:10;;;;;;;13.93;8.20;;;19.80;99.90;;;;;;5018947;28;20410;-82
2022/08/18 05:48:35;;;;;;;13.07;8.70;;;19.90;99.90;;;;;;5015625;28;20504;-81
2022/08/18 05:51:15;;;;;;;10.17;8.53;;;20.00;99.90;;;;;;5021045;28;20484;-80
2022/08/18 05:56:45;;;;;;;9.53;8.50;;;20.30;99.90;;;;;;5025298;28;20428;-81
2022/08/18 05:59:18;;;;;;;15.43;9.23;;;20.40;99.90;;;;;;5023065;28;20401;-81
2022/08/18 06:01:51;;;;;;;14.80;10.20;;;20.50;99.90;;;;;;5017684;28;20417;-80
2022/08/18 06:04:32;;;;;;;12.07;9.57;;;20.70;99.90;;;;;;5018373;28;20934;-80
2022/08/18 06:07:03;;;;;;;11.33;9.40;;;20.60;99.90;;;;;;5021820;28;20404;-80
2022/08/18 06:09:37;;;;;;;9.67;8.67;;;20.60;99.90;;;;;;5021895;28;20445;-81
2022/08/18 06:12:27;;;;;;;9.00;8.10;;;20.70;99.90;;;;;;5022938;28;20948;-81
2022/08/18 06:15:14;;;;;;;13.20;9.90;;;20.70;99.90;;;;;;5020750;28;20409;-81
2022/08/18 06:18:18;;;;;;;9.80;7.87;;;20.80;99.90;;;;;;5018358;28;20424;-80
2022/08/18 06:21:13;;;;;;;11.40;8.40;;;20.90;99.90;;;;;;5018051;28;20468;-80
2022/08/18 06:23:50;;;;;;;10.10;9.03;;;21.20;99.90;;;;;;5021024;28;20779;-80
2022/08/18 06:26:44;;;;;;;10.40;8.70;;;21.10;99.90;;;;;;5023479;28;20413;-80
2022/08/18 06:29:43;;;;;;;9.37;8.47;;;20.90;99.90;;;;;;4991371;28;20417;-81
2022/08/18 06:32:51;;;;;;;8.70;7.80;;;21.20;99.90;;;;;;4951850;28;20469;-80
2022/08/18 06:35:22;;;;;;;11.23;7.77;;;21.50;99.90;;;;;;5021440;28;20943;-80
2022/08/18 06:40:41;;;;;;;9.03;7.90;;;22.00;99.90;;;;;;5021605;28;20484;-80
2022/08/18 06:43:11;;;;;;;9.30;7.53;;;22.10;99.90;;;;;;5021747;28;20941;-81
2022/08/18 06:45:40;;;;;;;8.50;7.63;;;22.10;99.90;;;;;;5020583;28;20198;-80
2022/08/18 06:48:18;;;;;;;8.27;7.47;;;22.10;99.90;;;;;;5018128;28;21063;-81
2022/08/18 06:50:59;;;;;;;8.10;7.30;;;21.80;99.90;;;;;;5018614;28;20801;-80
2022/08/18 06:53:56;;;;;;;8.77;7.83;;;21.50;99.90;;;;;;5020888;28;20412;-80
2022/08/18 06:56:33;;;;;;;8.67;7.77;;;21.40;99.90;;;;;;5022586;28;20412;-81
2022/08/18 06:59:43;;;;;;;14.23;8.10;;;21.60;99.90;;;;;;5017716;28;20440;-80
2022/08/18 07:02:24;;;;;;;8.70;7.20;;;21.60;99.90;;;;;;5003451;28;21249;-80
2022/08/18 07:05:19;;;;;;;12.33;8.83;;;21.50;99.90;;;;;;5020152;28;20525;-81
2022/08/18 07:07:46;;;;;;;8.20;7.50;;;21.80;99.90;;;;;;5020231;28;20431;-80
2022/08/18 07:10:14;;;;;;;9.30;7.17;;;22.30;99.90;;;;;;5021914;28;20433;-80
2022/08/18 07:12:40;;;;;;;11.33;8.40;;;22.90;99.90;;;;;;5020186;28;20421;-80
2022/08/18 07:15:06;;;;;;;9.03;8.07;;;23.20;99.90;;;;;;5023665;28;20495;-80
2022/08/18 07:17:36;;;;;;;8.67;7.70;;;23.40;99.90;;;;;;5016834;28;20655;-80
2022/08/18 07:20:08;;;;;;;8.40;7.53;;;23.30;99.90;;;;;;5019890;28;20468;-80
2022/08/18 07:23:00;;;;;;;7.60;6.87;;;24.40;99.90;;;;;;5019244;28;20452;-80
2022/08/18 07:25:31;;;;;;;12.07;7.60;;;25.30;99.90;;;;;;5021565;28;20457;-80
2022/08/18 07:28:00;;;;;;;8.80;7.10;;;25.20;99.90;;;;;;5022520;28;20416;-80
2022/08/18 07:30:36;;;;;;;8.90;7.77;;;25.30;99.90;;;;;;5019888;28;20455;-80
2022/08/18 07:33:06;;;;;;;7.90;6.97;;;23.90;99.90;;;;;;5014282;28;20942;-80
2022/08/18 07:35:45;;;;;;;9.77;8.20;;;23.50;99.90;;;;;;5019377;28;20906;-81
2022/08/18 07:38:28;;;;;;;9.77;8.60;;;23.20;99.90;;;;;;5017632;28;20459;-81
2022/08/18 07:41:06;;;;;;;7.83;7.00;;;23.00;99.90;;;;;;5018252;28;20980;-79
2022/08/18 07:44:02;;;;;;;10.20;8.20;;;22.70;99.90;;;;;;5017324;28;20946;-81
2022/08/18 07:46:31;;;;;;;10.93;8.47;;;22.20;99.90;;;;;;5021320;28;20417;-80
2022/08/18 07:48:58;;;;;;;9.07;7.13;;;21.90;99.90;;;;;;5018378;28;20413;-80
2022/08/18 07:51:37;;;;;;;8.33;7.53;;;21.60;99.90;;;;;;5018666;28;20445;-80
2022/08/18 07:54:27;;;;;;;8.93;7.10;;;21.90;99.90;;;;;;5019222;28;20409;-80
2022/08/18 07:57:32;;;;;;;9.40;7.70;;;22.10;99.90;;;;;;5021861;28;20444;-80
2022/08/18 08:00:17;;;;;;;13.20;8.30;;;22.10;99.90;;;;;;5024977;28;20472;-81
2022/08/18 08:03:20;;;;;;;9.73;8.53;;;22.20;99.90;;;;;;5019700;28;20433;-81
2022/08/18 08:06:13;;;;;;;11.57;8.20;;;22.20;99.90;;;;;;5004904;28;20982;-80
2022/08/18 08:08:42;;;;;;;8.80;7.90;;;22.10;99.90;;;;;;5018459;28;20606;-81
2022/08/18 08:11:45;;;;;;;9.53;8.27;;;21.70;99.90;;;;;;5020451;28;20477;-81
2022/08/18 08:14:11;;;;;;;10.63;8.00;;;21.80;99.90;;;;;;5022812;28;20417;-80
2022/08/18 08:16:44;;;;;;;8.60;7.77;;;21.70;99.90;;;;;;5022952;28;21008;-80
2022/08/18 08:19:25;;;;;;;11.33;8.20;;;21.40;99.90;;;;;;5017778;28;20189;-80
2022/08/18 08:22:19;;;;;;;10.13;8.83;;;21.30;99.90;;;;;;5016755;28;20429;-80
2022/08/18 08:25:16;;;;;;;8.57;7.67;;;21.10;99.90;;;;;;5018420;28;20460;-79
2022/08/18 08:28:09;;;;;;;9.83;8.90;;;21.20;99.90;;;;;;5020412;28;20404;-81
2022/08/18 08:30:45;;;;;;;11.37;8.13;;;21.40;99.90;;;;;;5021289;28;20507;-80
2022/08/18 08:33:25;;;;;;;16.30;9.27;;;21.40;99.90;;;;;;5018684;28;20511;-80
2022/08/18 08:36:02;;;;;;;8.70;7.87;;;21.30;99.90;;;;;;5019918;28;20474;-80
2022/08/18 08:38:46;;;;;;;10.63;7.30;;;21.20;99.90;;;;;;5019528;28;20499;-81
2022/08/18 08:41:50;;;;;;;7.90;7.10;;;21.30;99.90;;;;;;5021210;28;20463;-80
2022/08/18 08:44:45;;;;;;;8.70;7.80;;;21.40;99.90;;;;;;5022048;28;20572;-80
2022/08/18 08:47:24;;;;;;;10.43;8.90;;;21.20;99.90;;;;;;5010749;28;20413;-80
2022/08/18 08:49:57;;;;;;;12.70;8.03;;;21.00;99.90;;;;;;5017013;28;20455;-81
2022/08/18 08:52:44;;;;;;;8.23;7.47;;;21.00;99.90;;;;;;5019371;28;20760;-80
2022/08/18 08:55:10;;;;;;;8.70;7.80;;;21.30;99.90;;;;;;5015522;28;20429;-82
2022/08/18 08:57:42;;;;;;;11.70;6.87;;;21.60;99.90;;;;;;5020570;28;20412;-81
2022/08/18 09:00:10;;;;;;;11.07;8.83;;;21.90;99.90;;;;;;5029616;28;20206;-84
2022/08/18 09:03:03;;;;;;;9.70;8.47;;;22.00;99.90;;;;;;5021509;28;20421;-84
2022/08/18 09:05:38;;;;;;;12.93;8.03;;;22.10;99.90;;;;;;5018405;28;20445;-83
2022/08/18 09:08:15;;;;;;;11.60;9.27;;;22.30;99.90;;;;;;5023361;28;20424;-83
2022/08/18 09:11:01;;;;;;;10.60;9.07;;;22.70;99.90;;;;;;5027950;28;20528;-82
2022/08/18 09:14:07;;;;;;;10.60;9.23;;;23.00;99.90;;;;;;5021002;28;20404;-82
2022/08/18 09:17:03;;;;;;;10.33;9.10;;;22.70;99.90;;;;;;4976815;28;20437;-82
2022/08/18 09:19:51;;;;;;;10.70;9.70;;;22.60;99.90;;;;;;5010608;28;20457;-83
2022/08/18 09:22:46;;;;;;;13.70;8.90;;;22.60;99.90;;;;;;5020237;28;20448;-83
2022/08/18 09:25:37;;;;;;;13.60;9.80;;;23.00;99.90;;;;;;5023305;28;20981;-82
2022/08/18 09:28:11;;;;;;;15.00;8.43;;;23.90;99.90;;;;;;5017535;28;20436;-83
2022/08/18 09:30:40;;;;;;;10.27;8.63;;;25.10;99.90;;;;;;5019778;28;20431;-83
2022/08/18 09:33:44;;;;;;;10.90;8.70;;;25.30;99.90;;;;;;5018854;28;20433;-82
2022/08/18 09:36:12;;;;;;;10.07;8.90;;;24.70;99.90;;;;;;5017622;28;20977;-83
2022/08/18 09:41:58;;;;;;;32.93;11.43;;;24.10;99.90;;;;;;5014336;28;20424;-82
2022/08/18 09:44:45;;;;;;;10.40;9.07;;;24.00;99.90;;;;;;5021255;28;20456;-82
2022/08/18 09:47:32;;;;;;;12.80;10.37;;;24.20;99.90;;;;;;5016790;28;20429;-83
2022/08/18 09:50:03;;;;;;;11.70;10.40;;;24.20;99.90;;;;;;4989450;28;20465;-82
2022/08/18 09:52:32;;;;;;;11.73;10.63;;;24.30;99.90;;;;;;5012897;28;20460;-83
2022/08/18 09:54:57;;;;;;;13.00;9.97;;;24.50;99.90;;;;;;5018960;28;20441;-83
2022/08/18 09:57:29;;;;;;;14.13;10.57;;;24.90;99.90;;;;;;5019144;28;21430;-83
2022/08/18 09:59:56;;;;;;;13.77;10.83;;;26.00;99.90;;;;;;5018840;28;20210;-83
2022/08/18 10:02:27;;;;;;;13.03;11.23;;;26.00;99.90;;;;;;5016681;28;20482;-83
2022/08/18 10:05:21;;;;;;;14.07;12.50;;;25.10;99.90;;;;;;5017271;28;20492;-83
2022/08/18 10:08:07;;;;;;;13.60;11.57;;;24.50;99.90;;;;;;5012989;28;20421;-83
2022/08/18 10:11:05;;;;;;;11.23;10.13;;;24.20;99.90;;;;;;5020604;28;20428;-81
2022/08/18 10:13:58;;;;;;;13.20;11.80;;;24.80;99.90;;;;;;5020428;28;20473;-83
2022/08/18 10:16:41;;;;;;;15.20;10.93;;;24.80;99.90;;;;;;5019282;28;20417;-83
2022/08/18 10:19:28;;;;;;;16.97;11.27;;;25.50;99.90;;;;;;5019151;28;20437;-83
2022/08/18 10:21:54;;;;;;;13.37;10.27;;;25.60;99.90;;;;;;5024457;28;20412;-85
2022/08/18 10:24:22;;;;;;;12.93;11.57;;;25.80;99.90;;;;;;5019375;28;21120;-82
2022/08/18 10:26:47;;;;;;;13.33;11.30;;;25.60;99.90;;;;;;5023082;28;20416;-83
2022/08/18 10:29:28;;;;;;;16.37;12.67;;;26.20;99.90;;;;;;5020257;28;20410;-82
2022/08/18 10:31:54;;;;;;;13.77;12.13;;;26.20;99.90;;;;;;5022620;28;20593;-82
2022/08/18 10:34:49;;;;;;;11.90;10.70;;;26.20;99.90;;;;;;5022070;28;20432;-82
2022/08/18 10:37:31;;;;;;;17.40;11.13;;;26.60;99.90;;;;;;5024247;28;20177;-82
2022/08/18 10:40:12;;;;;;;13.27;11.80;;;26.70;99.90;;;;;;5022722;28;20484;-85
2022/08/18 10:42:48;;;;;;;13.97;11.70;;;26.20;99.90;;;;;;5020490;28;20421;-85
2022/08/18 10:45:25;;;;;;;18.10;13.33;;;26.00;99.90;;;;;;5022740;28;21060;-85
2022/08/18 10:48:03;;;;;;;13.90;12.07;;;26.00;99.90;;;;;;5023152;28;20842;-84
2022/08/18 10:50:57;;;;;;;11.83;10.53;;;26.30;99.90;;;;;;5020667;28;20429;-84
2022/08/18 10:53:54;;;;;;;17.30;12.73;;;26.30;99.90;;;;;;5023488;28;20437;-85
2022/08/18 10:56:34;;;;;;;13.73;12.33;;;26.00;99.90;;;;;;5021002;28;20409;-84
2022/08/18 10:59:11;;;;;;;14.47;12.47;;;26.00;99.90;;;;;;5021482;28;20443;-84
2022/08/18 11:02:02;;;;;;;13.97;12.50;;;25.90;99.90;;;;;;5021260;28;20520;-82
2022/08/18 11:04:54;;;;;;;12.77;11.43;;;26.20;99.90;;;;;;4996628;28;20468;-85
2022/08/18 11:07:30;;;;;;;14.07;12.43;;;25.80;99.90;;;;;;5013692;28;20446;-84
2022/08/18 11:09:57;;;;;;;15.43;13.13;;;26.00;99.90;;;;;;5018089;28;20778;-84
2022/08/18 11:12:53;;;;;;;18.93;14.00;;;26.40;99.90;;;;;;5020321;28;20410;-84
2022/08/18 11:15:30;;;;;;;14.83;13.30;;;26.50;99.90;;;;;;5019817;28;20412;-84
2022/08/18 11:17:59;;;;;;;58.60;15.60;;;26.70;99.90;;;;;;5020578;28;20449;-84
2022/08/18 11:20:30;;;;;;;13.93;12.43;;;26.90;99.90;;;;;;5019550;28;20530;-83
2022/08/18 11:22:59;;;;;;;15.60;13.50;;;26.80;99.90;;;;;;5018341;28;20426;-84
2022/08/18 11:25:30;;;;;;;15.50;13.03;;;26.90;99.90;;;;;;5017687;28;20477;-85
2022/08/18 11:27:57;;;;;;;13.60;12.20;;;27.20;99.90;;;;;;5021902;28;20420;-84
2022/08/18 11:30:30;;;;;;;14.10;12.10;;;27.20;99.90;;;;;;5018281;28;21189;-84
2022/08/18 11:32:56;;;;;;;14.00;12.30;;;27.30;99.90;;;;;;5015808;28;20424;-83
2022/08/18 11:35:47;;;;;;;12.00;10.83;;;27.40;99.90;;;;;;5021101;28;20443;-82
2022/08/18 11:38:14;;;;;;;12.90;11.70;;;27.60;99.90;;;;;;5007739;28;20444;-82
2022/08/18 11:40:43;;;;;;;15.70;12.43;;;27.50;99.90;;;;;;5022245;28;20428;-82
2022/08/18 11:43:09;;;;;;;14.20;12.87;;;27.30;99.90;;;;;;5017856;28;20419;-83
2022/08/18 11:45:47;;;;;;;13.80;12.07;;;27.20;99.90;;;;;;5018998;28;20841;-82
2022/08/18 11:48:13;;;;;;;14.70;12.00;;;27.20;99.90;;;;;;5019402;28;20404;-82
2022/08/18 11:50:58;;;;;;;20.23;12.17;;;27.60;99.90;;;;;;5016564;28;20457;-83
2022/08/18 11:53:50;;;;;;;18.30;11.50;;;27.80;99.90;;;;;;5005979;28;20190;-82
2022/08/18 11:56:19;;;;;;;12.80;11.47;;;28.00;99.90;;;;;;5023438;28;20408;-83
2022/08/18 11:58:49;;;;;;;12.33;11.00;;;28.10;99.90;;;;;;5018727;28;20933;-83
2022/08/18 12:01:48;;;;;;;13.13;11.83;;;27.90;99.90;;;;;;5021530;28;20449;-82
2022/08/18 12:04:26;;;;;;;11.40;9.97;;;28.10;99.90;;;;;;5017424;28;20596;-82
2022/08/18 12:06:55;;;;;;;10.23;9.27;;;28.30;99.90;;;;;;5018724;28;20417;-82
2022/08/18 12:09:45;;;;;;;10.50;9.20;;;28.80;99.90;;;;;;5016950;28;20443;-81
2022/08/18 12:12:25;;;;;;;9.43;8.57;;;28.20;99.90;;;;;;5018811;28;20447;-83
2022/08/18 12:15:01;;;;;;;10.47;9.47;;;27.90;99.90;;;;;;5018409;28;20991;-85
2022/08/18 12:17:28;;;;;;;10.33;9.23;;;28.10;99.90;;;;;;5014483;28;20959;-82
2022/08/18 12:19:56;;;;;;;10.17;9.13;;;28.10;99.90;;;;;;5019389;28;20471;-83
2022/08/18 12:22:25;;;;;;;10.17;9.23;;;28.10;99.90;;;;;;5021656;28;20419;-82
2022/08/18 12:24:51;;;;;;;10.10;9.10;;;27.60;99.90;;;;;;5019773;28;20464;-82
2022/08/18 12:27:20;;;;;;;10.00;8.47;;;27.50;99.90;;;;;;5019774;28;20425;-81
2022/08/18 12:29:45;;;;;;;10.53;9.40;;;27.90;99.90;;;;;;5019779;28;20997;-81
2022/08/18 12:32:12;;;;;;;10.40;9.17;;;28.00;99.90;;;;;;5016953;28;20471;-84
2022/08/18 12:34:38;;;;;;;9.93;8.93;;;28.10;99.90;;;;;;5019574;28;20182;-84
2022/08/18 12:37:07;;;;;;;9.87;8.47;;;28.50;99.90;;;;;;5014933;28;20425;-81
2022/08/18 12:39:35;;;;;;;9.63;8.83;;;28.60;99.90;;;;;;5017549;28;20750;-85
2022/08/18 12:42:01;;;;;;;9.83;8.83;;;28.40;99.90;;;;;;5016813;28;20440;-85
2022/08/18 12:44:27;;;;;;;10.30;9.30;;;28.40;99.90;;;;;;5017440;28;20555;-85
2022/08/18 12:46:54;;;;;;;14.67;9.80;;;28.50;99.90;;;;;;5018628;28;20445;-84
2022/08/18 12:49:22;;;;;;;10.40;9.40;;;28.80;99.90;;;;;;5015330;28;20416;-84
2022/08/18 12:51:49;;;;;;;12.40;8.10;;;28.80;99.90;;;;;;5020461;28;20443;-81
2022/08/18 12:54:15;;;;;;;12.50;7.80;;;28.30;99.90;;;;;;5019398;28;20433;-84
2022/08/18 12:56:41;;;;;;;10.43;9.37;;;27.90;99.90;;;;;;5020044;28;20854;-85
2022/08/18 12:59:08;;;;;;;10.37;8.73;;;27.60;99.90;;;;;;5017428;28;20204;-84
2022/08/18 13:01:36;;;;;;;9.43;8.63;;;27.60;99.90;;;;;;5016556;28;20406;-84
2022/08/18 13:04:02;;;;;;;8.83;8.03;;;27.70;99.90;;;;;;5017143;28;20452;-84
2022/08/18 13:06:30;;;;;;;9.50;8.50;;;27.50;99.90;;;;;;5015519;28;20417;-84
2022/08/18 13:08:55;;;;;;;10.57;8.90;;;27.60;99.90;;;;;;5013743;28;20928;-84
2022/08/18 13:11:22;;;;;;;9.47;8.57;;;28.10;99.90;;;;;;5017825;28;20443;-83
2022/08/18 13:13:49;;;;;;;9.40;8.50;;;28.40;99.90;;;;;;5020725;28;20186;-82
2022/08/18 13:16:15;;;;;;;9.63;8.73;;;28.50;99.90;;;;;;5018223;28;20461;-83
2022/08/18 13:18:40;;;;;;;9.07;8.27;;;28.50;99.90;;;;;;5014407;28;21020;-83
2022/08/18 13:21:09;;;;;;;11.20;10.10;;;28.20;99.90;;;;;;5018664;28;20223;-83
2022/08/18 13:23:34;;;;;;;10.70;9.63;;;28.00;99.90;;;;;;5017394;28;20206;-83
2022/08/18 13:26:01;;;;;;;10.80;9.70;;;27.70;99.90;;;;;;5015524;28;20500;-83
2022/08/18 13:28:31;;;;;;;11.30;9.80;;;27.60;99.90;;;;;;5014046;28;20421;-82
2022/08/18 13:30:56;;;;;;;9.63;8.47;;;27.80;99.90;;;;;;5019916;28;20497;-83
2022/08/18 13:33:22;;;;;;;9.77;8.77;;;28.20;99.90;;;;;;5015631;28;20499;-85